createdAt,value
2018-11-26T06:32:08.844Z,29.03
2018-11-26T06:35:01.186Z,27.70
2018-11-26T06:37:54.170Z,28.07
2018-11-26T06:40:46.554Z,28.87
2018-11-26T06:43:38.827Z,28.67
2018-11-26T06:46:31.203Z,28.17
2018-11-26T06:49:23.476Z,29.60
2018-11-26T06:52:15.731Z,29.27
2018-11-26T06:55:09.124Z,27.97
2018-11-26T06:58:01.447Z,29.63
2018-11-26T07:00:53.762Z,29.43
2018-11-26T07:03:46.017Z,28.27
2018-11-26T07:06:38.263Z,29.53
2018-11-26T07:09:30.590Z,29.90
2018-11-26T07:12:22.824Z,27.87
2018-11-26T07:15:16.214Z,31.43
2018-11-26T07:18:08.433Z,30.17
2018-11-26T07:21:00.719Z,30.13
2018-11-26T07:23:53.231Z,32.07
2018-11-26T07:26:45.851Z,30.60
2018-11-26T07:29:38.132Z,32.13
2018-11-26T07:32:30.452Z,31.33
2018-11-26T07:35:22.702Z,33.37
2018-11-26T07:38:14.932Z,32.53
2018-11-26T07:41:07.215Z,30.90
2018-11-26T07:43:59.561Z,31.47
2018-11-26T07:46:52.599Z,31.87
2018-11-26T07:49:44.861Z,33.10
2018-11-26T07:52:37.087Z,31.60
2018-11-26T07:55:29.858Z,32.00
2018-11-26T07:58:22.152Z,32.93
2018-11-26T08:01:14.409Z,32.20
2018-11-26T08:04:06.643Z,33.60
2018-11-26T08:06:58.989Z,33.03
2018-11-26T08:09:51.314Z,33.30
2018-11-26T08:12:43.877Z,31.43
2018-11-26T08:15:36.128Z,32.93
2018-11-26T08:18:28.360Z,35.23
2018-11-26T08:21:20.617Z,31.97
2018-11-26T08:24:12.931Z,31.30
2018-11-26T08:27:05.249Z,30.83
2018-11-26T08:29:57.489Z,33.13
2018-11-26T08:32:50.357Z,31.77
2018-11-26T08:35:42.953Z,32.77
2018-11-26T08:38:35.177Z,32.13
2018-11-26T08:41:27.416Z,30.47
2018-11-26T08:44:19.973Z,32.40
2018-11-26T08:47:12.432Z,31.43
2018-11-26T08:50:04.829Z,29.90
2018-11-26T08:52:57.056Z,31.27
2018-11-26T08:55:49.312Z,32.17
2018-11-26T08:58:41.579Z,30.73
2018-11-26T09:01:34.324Z,31.43
2018-11-26T09:04:34.297Z,31.53
2018-11-26T09:07:26.786Z,31.77
2018-11-26T09:10:19.049Z,30.07
2018-11-26T09:13:11.272Z,31.83
2018-11-26T09:16:03.584Z,30.37
2018-11-26T09:18:55.858Z,30.03
2018-11-26T09:21:48.129Z,30.13
2018-11-26T09:24:40.778Z,29.30
2018-11-26T09:27:33.341Z,29.63
2018-11-26T09:30:25.575Z,29.13
2018-11-26T09:33:17.809Z,28.47
2018-11-26T09:36:10.048Z,28.67
2018-11-26T09:39:02.477Z,28.77
2018-11-26T09:41:55.037Z,27.13
2018-11-26T09:44:47.808Z,27.73
2018-11-26T09:47:40.071Z,28.90
2018-11-26T09:50:32.317Z,27.27
2018-11-26T09:53:24.546Z,27.13
2018-11-26T09:56:17.774Z,28.63
2018-11-26T09:59:10.325Z,27.80
2018-11-26T10:02:02.565Z,27.90
2018-11-26T10:04:54.790Z,27.33
2018-11-26T10:07:28.011Z,25.67
2018-11-26T10:10:20.531Z,26.17
2018-11-26T10:13:12.771Z,25.63
2018-11-26T10:16:05.406Z,26.90
2018-11-26T10:18:57.940Z,27.33
2018-11-26T10:21:50.177Z,25.70
2018-11-26T10:24:42.709Z,27.47
2018-11-26T10:27:34.973Z,25.30
2018-11-26T10:30:27.201Z,27.40
2018-11-26T10:33:19.470Z,26.77
2018-11-26T10:36:12.105Z,25.60
2018-11-26T10:39:06.860Z,24.60
2018-11-26T10:41:59.124Z,23.77
2018-11-26T10:44:51.381Z,24.13
2018-11-26T10:47:43.627Z,25.03
2018-11-26T10:50:35.853Z,22.43
2018-11-26T10:53:28.104Z,23.47
2018-11-26T10:56:20.428Z,23.83
2018-11-26T10:59:12.788Z,23.33
2018-11-26T11:02:05.403Z,22.83
2018-11-26T11:04:57.628Z,23.60
2018-11-26T11:07:49.883Z,24.07
2018-11-26T11:10:42.115Z,23.90
2018-11-26T11:13:34.359Z,24.30
2018-11-26T11:16:26.691Z,25.13
2018-11-26T11:19:19.246Z,25.23
2018-11-26T11:22:11.491Z,25.93
2018-11-26T11:25:03.826Z,26.57
2018-11-26T11:27:56.519Z,25.50
2018-11-26T11:30:49.304Z,26.33
2018-11-26T11:33:41.556Z,25.60
2018-11-26T11:36:33.908Z,25.93
2018-11-26T11:39:26.153Z,25.87
2018-11-26T11:42:18.390Z,25.27
2018-11-26T11:45:11.214Z,26.57
2018-11-26T11:48:03.766Z,26.07
2018-11-26T11:50:56.109Z,25.77
2018-11-26T11:53:48.602Z,26.30
2018-11-26T11:56:40.854Z,26.23
2018-11-26T11:59:33.101Z,26.13
2018-11-26T12:02:25.423Z,25.93
2018-11-26T12:08:29.117Z,26.90
2018-11-26T12:11:21.351Z,27.13
2018-11-26T12:14:13.609Z,26.10
2018-11-26T12:17:05.859Z,26.27
2018-11-26T12:19:58.098Z,25.33
2018-11-26T12:22:50.446Z,24.57
2018-11-26T12:25:42.687Z,25.93
2018-11-26T12:28:34.933Z,24.97
2018-11-26T12:31:27.171Z,26.17
2018-11-26T12:34:19.426Z,26.07
2018-11-26T12:37:11.704Z,24.27
2018-11-26T12:40:04.754Z,26.17
2018-11-26T12:42:57.560Z,24.93
2018-11-26T12:45:49.790Z,26.40
2018-11-26T12:48:42.044Z,26.87
2018-11-26T12:51:34.845Z,26.57
2018-11-26T12:54:27.105Z,25.87
2018-11-26T12:57:19.390Z,28.17
2018-11-26T13:00:30.954Z,26.30
2018-11-26T13:03:23.249Z,25.67
2018-11-26T13:06:15.493Z,26.80
2018-11-26T13:09:07.753Z,28.60
2018-11-26T13:11:59.986Z,27.00
2018-11-26T13:14:52.247Z,28.47
2018-11-26T13:17:44.543Z,28.83
2018-11-26T13:20:36.789Z,28.10
2018-11-26T13:23:29.132Z,30.60
2018-11-26T13:26:21.372Z,31.07
2018-11-26T13:29:13.957Z,31.10
2018-11-26T13:32:06.192Z,30.90
2018-11-26T13:34:58.434Z,30.37
2018-11-26T13:37:50.685Z,30.70
2018-11-26T13:40:42.921Z,30.20
2018-11-26T13:43:35.678Z,29.00
2018-11-26T13:46:28.013Z,29.40
2018-11-26T13:49:20.365Z,30.03
2018-11-26T13:52:12.649Z,29.13
2018-11-26T13:55:06.225Z,29.67
2018-11-26T13:57:58.830Z,28.90
2018-11-26T14:00:51.709Z,30.17
2018-11-26T14:03:44.288Z,28.30
2018-11-26T14:06:36.516Z,29.10
2018-11-26T14:09:10.104Z,29.30
2018-11-26T14:12:02.334Z,28.93
2018-11-26T14:14:55.212Z,29.53
2018-11-26T14:17:47.458Z,27.83
2018-11-26T14:20:39.693Z,28.10
2018-11-26T14:23:32.022Z,29.10
2018-11-26T14:26:24.538Z,28.57
2018-11-26T14:29:16.822Z,28.60
2018-11-26T14:32:09.065Z,29.03
2018-11-26T14:35:01.302Z,29.33
2018-11-26T14:38:12.539Z,28.93
2018-11-26T14:41:04.790Z,28.77
2018-11-26T14:43:57.090Z,28.93
2018-11-26T14:46:49.381Z,28.53
2018-11-26T14:49:41.642Z,28.70
2018-11-26T14:52:33.884Z,28.00
2018-11-26T14:55:26.773Z,27.97
2018-11-26T14:58:19.024Z,29.67
2018-11-26T15:01:11.278Z,27.80
2018-11-26T15:04:03.710Z,27.53
2018-11-26T15:06:55.944Z,30.27
2018-11-26T15:09:48.497Z,28.13
2018-11-26T15:12:40.827Z,28.47
2018-11-26T15:15:33.095Z,27.90
2018-11-26T15:18:25.348Z,28.07
2018-11-26T15:21:18.039Z,28.93
2018-11-26T15:24:10.296Z,29.40
2018-11-26T15:27:02.542Z,28.10
2018-11-26T15:29:54.898Z,29.40
2018-11-26T15:32:47.608Z,29.30
2018-11-26T15:35:40.181Z,29.63
2018-11-26T15:38:32.523Z,28.20
2018-11-26T15:41:24.779Z,28.03
2018-11-26T15:44:17.026Z,28.37
2018-11-26T15:47:09.540Z,28.93
2018-11-26T15:50:01.805Z,28.83
2018-11-26T15:52:54.040Z,30.33
2018-11-26T15:55:46.316Z,27.60
2018-11-26T15:58:38.578Z,30.03
2018-11-26T16:01:30.807Z,28.03
2018-11-26T16:04:23.099Z,27.60
2018-11-26T16:07:15.417Z,28.57
2018-11-26T16:10:08.537Z,29.63
2018-11-26T16:13:01.571Z,29.53
2018-11-26T16:15:53.829Z,30.50
2018-11-26T16:18:46.083Z,30.30
2018-11-26T16:21:38.326Z,29.67
2018-11-26T16:24:11.681Z,31.70
2018-11-26T16:27:04.025Z,29.83
2018-11-26T16:29:56.318Z,30.43
2018-11-26T16:32:29.621Z,30.23
2018-11-26T16:35:22.956Z,30.03
2018-11-26T16:38:15.202Z,30.43
2018-11-26T16:41:07.458Z,29.77
2018-11-26T16:43:59.830Z,29.53
2018-11-26T16:46:52.065Z,29.07
2018-11-26T16:49:44.651Z,29.43
2018-11-26T16:52:37.129Z,30.53
2018-11-26T16:55:29.404Z,30.07
2018-11-26T16:58:12.240Z,31.03
2018-11-26T17:01:04.762Z,29.57
2018-11-26T17:03:57.049Z,28.40
2018-11-26T17:06:49.387Z,30.60
2018-11-26T17:09:41.925Z,29.77
2018-11-26T17:12:34.639Z,30.37
2018-11-26T17:15:27.422Z,31.80
2018-11-26T17:18:20.054Z,30.50
2018-11-26T17:21:12.377Z,31.23
2018-11-26T17:24:04.919Z,29.90
2018-11-26T17:26:57.197Z,30.07
2018-11-26T17:29:49.563Z,32.33
2018-11-26T17:32:41.825Z,31.53
2018-11-26T17:35:34.094Z,30.73
2018-11-26T17:38:26.395Z,32.80
2018-11-26T17:40:59.778Z,32.93
2018-11-26T17:43:52.027Z,32.73
2018-11-26T17:46:44.269Z,33.27
2018-11-26T17:49:36.526Z,32.83
2018-11-26T17:52:29.061Z,31.70
2018-11-26T17:55:21.718Z,32.83
2018-11-26T17:58:13.951Z,31.80
2018-11-26T18:01:07.523Z,31.97
2018-11-26T18:03:59.882Z,33.17
2018-11-26T18:06:52.145Z,32.87
2018-11-26T18:09:44.479Z,33.53
2018-11-26T18:12:36.723Z,32.63
2018-11-26T18:15:28.967Z,31.97
2018-11-26T18:18:21.219Z,33.00
2018-11-26T18:21:13.482Z,32.27
2018-11-26T18:24:05.170Z,32.87
2018-11-26T18:26:57.410Z,33.27
2018-11-26T18:29:49.689Z,32.27
2018-11-26T18:32:41.990Z,32.20
2018-11-26T18:35:34.402Z,32.13
2018-11-26T18:38:26.665Z,33.40
2018-11-26T18:41:19.006Z,34.07
2018-11-26T18:44:11.239Z,34.90
2018-11-26T18:47:03.503Z,34.33
2018-11-26T18:49:55.991Z,34.73
2018-11-26T18:52:48.696Z,33.60
2018-11-26T18:55:41.594Z,34.23
2018-11-26T18:58:34.298Z,33.33
2018-11-26T19:01:27.193Z,33.40
2018-11-26T19:04:20.047Z,34.67
2018-11-26T19:07:12.304Z,31.50
2018-11-26T19:10:07.646Z,32.63
2018-11-26T19:13:18.885Z,33.63
2018-11-26T19:16:12.846Z,33.03
2018-11-26T19:19:05.154Z,32.43
2018-11-26T19:21:57.930Z,33.67
2018-11-26T19:24:50.190Z,33.87
2018-11-26T19:27:42.449Z,33.20
2018-11-26T19:30:35.082Z,32.80
2018-11-26T19:33:27.416Z,33.70
2018-11-26T19:36:19.684Z,32.80
2018-11-26T19:39:12.137Z,34.23
2018-11-26T19:42:04.387Z,34.50
2018-11-26T19:44:56.737Z,32.67
2018-11-26T19:47:49.105Z,34.33
2018-11-26T19:50:41.443Z,33.73
2018-11-26T19:53:33.987Z,33.37
2018-11-26T19:56:26.328Z,32.30
2018-11-26T19:59:18.834Z,33.47
2018-11-26T20:02:11.077Z,33.30
2018-11-26T20:05:03.637Z,34.03
2018-11-26T20:07:56.282Z,34.07
2018-11-26T20:10:48.522Z,34.03
2018-11-26T20:13:40.815Z,34.67
2018-11-26T20:16:52.068Z,35.00
2018-11-26T20:19:44.306Z,34.50
2018-11-26T20:22:36.638Z,33.50
2018-11-26T20:25:28.969Z,32.40
2018-11-26T20:28:21.241Z,33.73
2018-11-26T20:31:13.493Z,34.20
2018-11-26T20:34:05.961Z,34.43
2018-11-26T20:36:58.539Z,34.83
2018-11-26T20:39:50.773Z,32.67
2018-11-26T20:42:52.929Z,33.53
2018-11-26T20:45:45.968Z,34.37
2018-11-26T20:48:38.556Z,33.33
2018-11-26T20:51:30.797Z,34.57
2018-11-26T20:54:23.038Z,34.73
2018-11-26T20:57:15.294Z,31.40
2018-11-26T21:00:17.730Z,33.70
2018-11-26T21:03:09.981Z,33.67
2018-11-26T21:06:02.216Z,34.17
2018-11-26T21:08:54.554Z,33.57
2018-11-26T21:11:46.806Z,33.00
2018-11-26T21:14:39.041Z,33.73
2018-11-26T21:17:31.401Z,36.20
2018-11-26T21:20:42.606Z,34.00
2018-11-26T21:23:34.861Z,36.27
2018-11-26T21:26:27.390Z,36.20
2018-11-26T21:29:19.779Z,34.00
2018-11-26T21:32:12.110Z,34.30
2018-11-26T21:35:04.814Z,35.47
2018-11-26T21:37:57.064Z,34.23
2018-11-26T21:40:49.293Z,35.07
2018-11-26T21:43:41.560Z,33.17
